Time;durP1;ratioP1;P1;durP2;ratioP2;P2;SDS_P1;SDS_P2;PMS_P1;PMS_P2;Temp;Humidity;BMP_temperature;BMP_pressure;BME280_temperature;BME280_humidity;BME280_pressure;Samples;Min_cycle;Max_cycle;Signal;HPM_P1;HPM_P2
2023/04/08 00:01:09;;;;;;;12.00;10.00;;;;;;;;;;5099873;28;20208;-80
2023/04/08 00:03:35;;;;;;;10.83;9.73;;;;;;;;;;5113294;28;20604;-80
2023/04/08 00:06:03;;;;;;;11.57;10.33;;;;;;;;;;5099319;28;20732;-80
2023/04/08 00:08:30;;;;;;;9.67;8.70;;;;;;;;;;5113217;28;20203;-80
2023/04/08 00:10:57;;;;;;;12.90;9.80;;;;;;;;;;5112368;28;20207;-80
2023/04/08 00:13:24;;;;;;;13.50;10.33;;;;;;;;;;5103188;28;20201;-79
2023/04/08 00:15:50;;;;;;;13.77;10.57;;;;;;;;;;5106789;28;20267;-79
2023/04/08 00:18:19;;;;;;;16.43;11.33;;;;;;;;;;5091528;28;20759;-80
2023/04/08 00:20:45;;;;;;;12.43;10.07;;;;;;;;;;5110193;28;20203;-80
2023/04/08 00:23:12;;;;;;;10.93;9.80;;;;;;;;;;5102787;28;20208;-80
2023/04/08 00:25:39;;;;;;;12.10;10.07;;;;;;;;;;5092673;28;20724;-81
2023/04/08 00:28:06;;;;;;;12.33;11.03;;;;;;;;;;5092654;28;20666;-80
2023/04/08 00:30:33;;;;;;;12.80;10.40;;;;;;;;;;5097214;28;20207;-80
2023/04/08 00:33:00;;;;;;;14.40;10.97;;;;;;;;;;5112872;28;20747;-80
2023/04/08 00:35:28;;;;;;;14.60;11.13;;;;;;;;;;5108140;28;20671;-80
2023/04/08 00:37:55;;;;;;;12.40;10.57;;;;;;;;;;5104176;28;20204;-80
2023/04/08 00:40:22;;;;;;;11.70;10.50;;;;;;;;;;5098999;28;20203;-80
2023/04/08 00:42:49;;;;;;;12.07;10.77;;;;;;;;;;5101071;28;20903;-80
2023/04/08 00:45:15;;;;;;;12.23;10.60;;;;;;;;;;5105700;28;20200;-80
2023/04/08 00:47:42;;;;;;;13.37;11.10;;;;;;;;;;5092142;28;20291;-80
2023/04/08 00:50:10;;;;;;;14.90;10.37;;;;;;;;;;5097297;28;20761;-80
2023/04/08 00:52:38;;;;;;;13.97;10.20;;;;;;;;;;5112406;28;20203;-80
2023/04/08 00:55:06;;;;;;;12.50;10.83;;;;;;;;;;5112422;28;20697;-80
2023/04/08 00:57:33;;;;;;;12.47;10.93;;;;;;;;;;5099073;28;20211;-81
2023/04/08 01:00:00;;;;;;;11.70;10.53;;;;;;;;;;5098769;28;20200;-80
2023/04/08 01:02:32;;;;;;;13.40;11.47;;;;;;;;;;5112153;28;20210;-80
2023/04/08 01:05:02;;;;;;;16.63;11.53;;;;;;;;;;5092414;28;20200;-80
2023/04/08 01:07:32;;;;;;;12.07;10.77;;;;;;;;;;5107402;28;20609;-79
2023/04/08 01:10:03;;;;;;;11.70;10.50;;;;;;;;;;5112587;28;20227;-79
2023/04/08 01:12:32;;;;;;;12.33;11.03;;;;;;;;;;5098254;28;20197;-79
2023/04/08 01:15:01;;;;;;;11.67;10.30;;;;;;;;;;5112315;28;20215;-79
2023/04/08 01:17:28;;;;;;;12.47;11.13;;;;;;;;;;5108358;28;20291;-80
2023/04/08 01:19:58;;;;;;;15.90;11.20;;;;;;;;;;5101625;28;20608;-80
2023/04/08 01:22:29;;;;;;;14.03;11.20;;;;;;;;;;5094593;28;20204;-80
2023/04/08 01:25:01;;;;;;;13.07;10.27;;;;;;;;;;5091191;28;20694;-79
2023/04/08 01:27:31;;;;;;;12.60;10.57;;;;;;;;;;5096488;28;20280;-80
2023/04/08 01:29:58;;;;;;;12.27;10.83;;;;;;;;;;5111442;28;20214;-80
2023/04/08 01:32:26;;;;;;;14.13;11.37;;;;;;;;;;5111224;28;20260;-80
2023/04/08 01:34:53;;;;;;;15.07;11.53;;;;;;;;;;5111987;28;20248;-80
2023/04/08 01:37:20;;;;;;;14.03;11.43;;;;;;;;;;5111686;28;20222;-80
2023/04/08 01:39:47;;;;;;;14.10;11.90;;;;;;;;;;5097801;28;20752;-80
2023/04/08 01:42:14;;;;;;;16.53;11.60;;;;;;;;;;5091623;28;20196;-80
2023/04/08 01:44:43;;;;;;;12.60;10.60;;;;;;;;;;5105069;28;20271;-80
2023/04/08 01:47:10;;;;;;;15.47;11.17;;;;;;;;;;5111372;28;20239;-80
2023/04/08 01:49:37;;;;;;;14.00;11.30;;;;;;;;;;5097745;28;20687;-80
2023/04/08 01:52:05;;;;;;;12.83;11.13;;;;;;;;;;5104009;28;20203;-79
2023/04/08 01:54:33;;;;;;;14.97;11.00;;;;;;;;;;5104556;28;20198;-80
2023/04/08 01:57:01;;;;;;;13.23;10.80;;;;;;;;;;5100306;28;20562;-80
2023/04/08 01:59:30;;;;;;;14.07;10.77;;;;;;;;;;5109012;28;20260;-80
2023/04/08 02:01:59;;;;;;;13.10;11.00;;;;;;;;;;5100305;28;20211;-80
2023/04/08 02:04:26;;;;;;;14.27;10.80;;;;;;;;;;5097296;28;20199;-80
2023/04/08 02:06:53;;;;;;;12.10;10.47;;;;;;;;;;5111143;28;20714;-80
2023/04/08 02:09:19;;;;;;;12.13;10.93;;;;;;;;;;5111146;28;20227;-80
2023/04/08 02:11:46;;;;;;;12.10;10.80;;;;;;;;;;5110986;28;20750;-80
2023/04/08 02:14:13;;;;;;;13.07;11.63;;;;;;;;;;5097492;28;20207;-80
2023/04/08 02:16:43;;;;;;;12.10;10.87;;;;;;;;;;5101230;28;20254;-80
2023/04/08 02:19:15;;;;;;;13.00;11.03;;;;;;;;;;5094839;28;20202;-79
2023/04/08 02:21:46;;;;;;;12.20;10.90;;;;;;;;;;5110980;28;20199;-79
2023/04/08 02:24:14;;;;;;;11.90;10.70;;;;;;;;;;5097528;28;20199;-79
2023/04/08 02:26:43;;;;;;;16.03;11.03;;;;;;;;;;5098887;28;20220;-80
2023/04/08 02:29:12;;;;;;;12.50;10.90;;;;;;;;;;5110655;28;20264;-80
2023/04/08 02:31:41;;;;;;;14.93;11.47;;;;;;;;;;5111408;28;20203;-80
2023/04/08 02:34:09;;;;;;;13.00;11.63;;;;;;;;;;5091327;28;20204;-82
2023/04/08 02:36:39;;;;;;;11.43;10.33;;;;;;;;;;5091488;28;20694;-82
2023/04/08 02:39:06;;;;;;;14.33;11.13;;;;;;;;;;5090699;28;20236;-80
2023/04/08 02:41:33;;;;;;;12.67;10.80;;;;;;;;;;5094078;28;20207;-80
2023/04/08 02:44:00;;;;;;;12.10;10.23;;;;;;;;;;5102501;28;20199;-80
2023/04/08 02:46:26;;;;;;;13.17;11.23;;;;;;;;;;5101320;28;20588;-80
2023/04/08 02:48:53;;;;;;;12.90;11.57;;;;;;;;;;5115563;28;20272;-80
2023/04/08 02:51:20;;;;;;;12.03;10.47;;;;;;;;;;5101055;28;20690;-80
2023/04/08 02:53:48;;;;;;;13.77;11.10;;;;;;;;;;5115130;28;20208;-80
2023/04/08 02:56:15;;;;;;;14.07;12.03;;;;;;;;;;5114700;28;20210;-80
2023/04/08 02:58:42;;;;;;;19.40;14.50;;;;;;;;;;5115106;28;20211;-80
2023/04/08 03:01:08;;;;;;;15.70;13.00;;;;;;;;;;5101052;28;20678;-80
2023/04/08 03:03:35;;;;;;;13.83;12.23;;;;;;;;;;5105846;28;20208;-80
2023/04/08 03:06:02;;;;;;;11.80;10.60;;;;;;;;;;5096415;28;20235;-80
2023/04/08 03:08:29;;;;;;;15.50;11.60;;;;;;;;;;5114572;28;20200;-79
2023/04/08 03:10:57;;;;;;;15.97;11.73;;;;;;;;;;5100933;28;20762;-80
2023/04/08 03:13:23;;;;;;;12.40;10.43;;;;;;;;;;5104446;28;20226;-80
2023/04/08 03:15:50;;;;;;;12.20;10.90;;;;;;;;;;5110404;28;20759;-80
2023/04/08 03:18:17;;;;;;;14.90;11.67;;;;;;;;;;5104462;28;20200;-79
2023/04/08 03:20:44;;;;;;;13.33;11.07;;;;;;;;;;5110687;28;20204;-80
2023/04/08 03:23:10;;;;;;;12.73;10.47;;;;;;;;;;5104413;28;20200;-81
2023/04/08 03:25:37;;;;;;;13.43;10.60;;;;;;;;;;5107263;28;20598;-80
2023/04/08 03:28:05;;;;;;;14.70;12.23;;;;;;;;;;5093893;28;20228;-80
2023/04/08 03:30:32;;;;;;;12.13;10.23;;;;;;;;;;5094088;28;20201;-80
2023/04/08 03:32:59;;;;;;;12.60;10.77;;;;;;;;;;5093727;28;20210;-81
2023/04/08 03:35:25;;;;;;;12.27;10.20;;;;;;;;;;5107806;28;20212;-80
2023/04/08 03:37:53;;;;;;;13.07;10.60;;;;;;;;;;5105151;28;20203;-80
2023/04/08 03:40:20;;;;;;;11.57;10.37;;;;;;;;;;5100072;28;20203;-80
2023/04/08 03:42:47;;;;;;;11.70;10.47;;;;;;;;;;5102313;28;20265;-80
2023/04/08 03:45:15;;;;;;;13.60;11.33;;;;;;;;;;5111808;28;20674;-79
2023/04/08 03:47:42;;;;;;;11.70;10.50;;;;;;;;;;5101665;28;20228;-84
2023/04/08 03:50:09;;;;;;;13.23;11.13;;;;;;;;;;5093885;28;20208;-81
2023/04/08 03:52:36;;;;;;;17.10;12.37;;;;;;;;;;5105762;28;20684;-80
2023/04/08 03:55:03;;;;;;;13.37;10.93;;;;;;;;;;5099933;28;20208;-80
2023/04/08 03:57:29;;;;;;;14.77;10.67;;;;;;;;;;5113390;28;20674;-80
2023/04/08 03:59:56;;;;;;;12.67;10.77;;;;;;;;;;5094194;28;20269;-80
2023/04/08 04:02:25;;;;;;;12.87;9.80;;;;;;;;;;5093091;28;20208;-80
2023/04/08 04:04:51;;;;;;;12.30;10.73;;;;;;;;;;5112886;28;20195;-80
2023/04/08 04:07:18;;;;;;;13.33;9.97;;;;;;;;;;5113101;28;20238;-80
2023/04/08 04:09:45;;;;;;;15.23;10.53;;;;;;;;;;5113386;28;20239;-80
2023/04/08 04:12:11;;;;;;;13.57;10.70;;;;;;;;;;5099935;28;20208;-80
2023/04/08 04:14:38;;;;;;;16.30;14.60;;;;;;;;;;5093173;28;20669;-80
2023/04/08 04:17:05;;;;;;;19.53;14.30;;;;;;;;;;5106394;28;20207;-80
2023/04/08 04:19:33;;;;;;;13.87;12.40;;;;;;;;;;5106133;28;20682;-80
2023/04/08 04:22:00;;;;;;;13.37;11.27;;;;;;;;;;5106211;28;20203;-81
2023/04/08 04:24:27;;;;;;;13.40;11.80;;;;;;;;;;5113375;28;20203;-80
2023/04/08 04:26:53;;;;;;;14.10;11.13;;;;;;;;;;5098798;28;20228;-81
2023/04/08 04:29:20;;;;;;;11.90;10.17;;;;;;;;;;5113402;28;20199;-79
2023/04/08 04:31:47;;;;;;;11.90;10.23;;;;;;;;;;5109291;28;20207;-77
2023/04/08 04:34:13;;;;;;;11.63;10.43;;;;;;;;;;5100135;28;20203;-77
2023/04/08 04:36:42;;;;;;;14.10;10.83;;;;;;;;;;5112150;28;20568;-77
2023/04/08 04:39:09;;;;;;;13.37;11.60;;;;;;;;;;5103375;28;20273;-77
2023/04/08 04:41:39;;;;;;;14.63;11.63;;;;;;;;;;5093055;28;20208;-79
2023/04/08 04:44:06;;;;;;;14.20;11.07;;;;;;;;;;5111737;28;20203;-77
2023/04/08 04:46:33;;;;;;;12.37;11.07;;;;;;;;;;5096118;28;20288;-78
2023/04/08 04:49:00;;;;;;;13.43;12.00;;;;;;;;;;5091648;28;20234;-78
2023/04/08 04:51:27;;;;;;;16.40;12.43;;;;;;;;;;5104981;28;20212;-77
2023/04/08 04:53:55;;;;;;;24.90;16.07;;;;;;;;;;5091873;28;20204;-77
2023/04/08 04:56:22;;;;;;;20.93;16.10;;;;;;;;;;5108272;28;20195;-78
2023/04/08 04:58:48;;;;;;;19.63;17.53;;;;;;;;;;5101511;28;20670;-77
2023/04/08 05:01:15;;;;;;;18.60;13.67;;;;;;;;;;5091471;28;20205;-79
2023/04/08 05:03:42;;;;;;;12.97;9.83;;;;;;;;;;5091359;28;20212;-79
2023/04/08 05:06:09;;;;;;;12.00;10.87;;;;;;;;;;5095503;28;20589;-79
2023/04/08 05:08:35;;;;;;;12.33;10.20;;;;;;;;;;5111957;28;20895;-79
2023/04/08 05:11:04;;;;;;;12.93;11.40;;;;;;;;;;5111162;28;20215;-79
2023/04/08 05:13:32;;;;;;;13.30;11.80;;;;;;;;;;5111976;28;20241;-79
2023/04/08 05:15:58;;;;;;;16.63;11.33;;;;;;;;;;5111708;28;20204;-79
2023/04/08 05:18:25;;;;;;;15.70;11.57;;;;;;;;;;5111557;28;20674;-79
2023/04/08 05:20:52;;;;;;;16.10;12.10;;;;;;;;;;5097488;28;20208;-80
2023/04/08 05:23:19;;;;;;;12.83;11.53;;;;;;;;;;5099976;28;20208;-80
2023/04/08 05:25:46;;;;;;;11.27;10.07;;;;;;;;;;5104851;28;20204;-80
2023/04/08 05:28:14;;;;;;;14.60;11.37;;;;;;;;;;5102887;28;20292;-80
2023/04/08 05:30:40;;;;;;;15.00;13.50;;;;;;;;;;5092826;28;20727;-80
2023/04/08 05:33:07;;;;;;;16.63;12.77;;;;;;;;;;5091272;28;20196;-80
2023/04/08 05:35:35;;;;;;;13.50;11.30;;;;;;;;;;5103561;28;20212;-80
2023/04/08 05:38:02;;;;;;;15.03;13.27;;;;;;;;;;5103795;28;20203;-79
2023/04/08 05:40:29;;;;;;;14.60;12.17;;;;;;;;;;5105464;28;20196;-79
2023/04/08 05:42:55;;;;;;;15.57;12.80;;;;;;;;;;5103761;28;20249;-79
2023/04/08 05:45:23;;;;;;;16.30;12.43;;;;;;;;;;5091804;28;20204;-80
2023/04/08 05:47:50;;;;;;;18.27;14.00;;;;;;;;;;5089264;28;20227;-77
2023/04/08 05:50:17;;;;;;;15.67;12.23;;;;;;;;;;5090634;28;20223;-77
2023/04/08 05:52:44;;;;;;;14.43;11.13;;;;;;;;;;5103788;28;20199;-77
2023/04/08 05:55:11;;;;;;;15.13;12.17;;;;;;;;;;5099107;28;20199;-77
2023/04/08 05:57:38;;;;;;;16.23;11.27;;;;;;;;;;5097515;28;20633;-77
2023/04/08 06:00:07;;;;;;;14.50;11.27;;;;;;;;;;5110433;28;20199;-77
2023/04/08 06:02:35;;;;;;;19.17;13.03;;;;;;;;;;5094057;28;20201;-77
2023/04/08 06:05:02;;;;;;;14.13;11.57;;;;;;;;;;5090391;28;20226;-77
2023/04/08 06:07:29;;;;;;;13.60;11.03;;;;;;;;;;5103965;28;20599;-77
2023/04/08 06:09:56;;;;;;;14.27;11.97;;;;;;;;;;5090300;28;20322;-76
2023/04/08 06:12:22;;;;;;;15.93;13.13;;;;;;;;;;5092025;28;20580;-77
2023/04/08 06:14:54;;;;;;;14.07;11.93;;;;;;;;;;5099355;28;20192;-80
2023/04/08 06:17:20;;;;;;;19.40;17.27;;;;;;;;;;5101581;28;20257;-81
2023/04/08 06:19:49;;;;;;;19.07;17.07;;;;;;;;;;5115265;28;20218;-80
2023/04/08 06:22:15;;;;;;;14.13;12.57;;;;;;;;;;5112248;28;20208;-79
2023/04/08 06:24:42;;;;;;;18.37;16.57;;;;;;;;;;5095317;28;20211;-81
2023/04/08 06:27:09;;;;;;;14.80;10.90;;;;;;;;;;5108398;28;20607;-78
2023/04/08 06:29:35;;;;;;;16.80;15.00;;;;;;;;;;5103966;28;20195;-78
2023/04/08 06:32:02;;;;;;;20.30;15.80;;;;;;;;;;5100825;28;20341;-78
2023/04/08 06:34:29;;;;;;;16.20;11.87;;;;;;;;;;5114598;28;20252;-78
2023/04/08 06:36:57;;;;;;;16.53;13.63;;;;;;;;;;5097748;28;20205;-77
2023/04/08 06:39:24;;;;;;;40.93;29.43;;;;;;;;;;5094473;28;20196;-77
2023/04/08 06:41:51;;;;;;;15.23;12.53;;;;;;;;;;5111008;28;20677;-79
2023/04/08 06:44:17;;;;;;;18.53;14.17;;;;;;;;;;5104204;28;20204;-78
2023/04/08 06:46:45;;;;;;;12.90;10.83;;;;;;;;;;5097666;28;20207;-78
2023/04/08 06:49:12;;;;;;;14.20;12.80;;;;;;;;;;5100318;28;20236;-78
2023/04/08 06:51:39;;;;;;;15.27;12.43;;;;;;;;;;5099163;28;20195;-78
2023/04/08 06:54:08;;;;;;;18.83;13.23;;;;;;;;;;5114832;28;20203;-78
2023/04/08 06:56:35;;;;;;;21.23;15.63;;;;;;;;;;5114389;28;20743;-79
2023/04/08 06:59:05;;;;;;;16.57;14.67;;;;;;;;;;5115087;28;20210;-77
2023/04/08 07:01:31;;;;;;;20.23;16.43;;;;;;;;;;5114012;28;20205;-78
2023/04/08 07:03:58;;;;;;;16.47;13.50;;;;;;;;;;5114195;28;20295;-78
2023/04/08 07:06:25;;;;;;;20.20;14.03;;;;;;;;;;5094925;28;20200;-80
2023/04/08 07:08:52;;;;;;;27.77;24.93;;;;;;;;;;5093640;28;20699;-80
2023/04/08 07:11:20;;;;;;;27.20;21.50;;;;;;;;;;5099236;28;20203;-80
2023/04/08 07:13:47;;;;;;;36.47;24.63;;;;;;;;;;5112831;28;20199;-81
2023/04/08 07:16:14;;;;;;;19.43;16.67;;;;;;;;;;5106173;28;20701;-80
2023/04/08 07:18:42;;;;;;;19.37;14.17;;;;;;;;;;5106444;28;20260;-80
2023/04/08 07:21:09;;;;;;;12.37;11.07;;;;;;;;;;5100159;28;20204;-80
2023/04/08 07:23:36;;;;;;;17.43;13.17;;;;;;;;;;5098448;28;20200;-81
2023/04/08 07:26:04;;;;;;;13.93;12.00;;;;;;;;;;5099837;28;20222;-80
2023/04/08 07:28:32;;;;;;;16.07;14.37;;;;;;;;;;5099093;28;20263;-81
2023/04/08 07:31:12;;;;;;;13.03;11.70;;;;;;;;;;5104907;28;20204;-81
2023/04/08 07:33:40;;;;;;;16.77;13.97;;;;;;;;;;5095401;28;20673;-81
2023/04/08 07:36:06;;;;;;;17.10;15.30;;;;;;;;;;5112681;28;20203;-80
2023/04/08 07:38:33;;;;;;;24.70;16.93;;;;;;;;;;5112750;28;20207;-81
2023/04/08 07:41:00;;;;;;;18.07;15.63;;;;;;;;;;5102265;28;20208;-80
2023/04/08 07:43:27;;;;;;;17.17;15.03;;;;;;;;;;5096671;28;20194;-81
2023/04/08 07:46:01;;;;;;;17.50;14.93;;;;;;;;;;5101341;28;20623;-81
2023/04/08 07:48:28;;;;;;;14.53;12.93;;;;;;;;;;5105839;28;20717;-81
2023/04/08 07:50:55;;;;;;;16.37;11.90;;;;;;;;;;5092719;28;20287;-81
2023/04/08 07:53:22;;;;;;;20.90;17.33;;;;;;;;;;5098128;28;20203;-82
2023/04/08 07:55:49;;;;;;;12.77;11.47;;;;;;;;;;5113190;28;20195;-81
2023/04/08 07:58:15;;;;;;;15.93;13.80;;;;;;;;;;5107126;28;20211;-81
2023/04/08 08:00:42;;;;;;;13.87;12.03;;;;;;;;;;5105349;28;20203;-81
2023/04/08 08:03:10;;;;;;;22.93;17.30;;;;;;;;;;5092586;28;20666;-78
2023/04/08 08:05:37;;;;;;;16.83;12.23;;;;;;;;;;5094978;28;20200;-79
2023/04/08 08:08:06;;;;;;;16.33;14.63;;;;;;;;;;5112165;28;20235;-78
2023/04/08 08:10:33;;;;;;;13.03;11.73;;;;;;;;;;5069727;28;1225522;-79
2023/04/08 08:13:01;;;;;;;13.27;11.53;;;;;;;;;;5107009;28;20204;-78
2023/04/08 08:15:27;;;;;;;12.30;11.03;;;;;;;;;;5106966;28;20207;-81
2023/04/08 08:17:54;;;;;;;14.70;11.53;;;;;;;;;;5093563;28;20702;-80
2023/04/08 08:20:22;;;;;;;15.90;12.67;;;;;;;;;;5093498;28;20200;-81
2023/04/08 08:22:49;;;;;;;15.40;11.97;;;;;;;;;;5113781;28;20746;-79
2023/04/08 08:25:16;;;;;;;15.60;12.33;;;;;;;;;;5112814;28;20203;-80
2023/04/08 08:27:44;;;;;;;17.83;12.20;;;;;;;;;;5100524;28;20216;-80
2023/04/08 08:30:11;;;;;;;10.37;9.37;;;;;;;;;;5113975;28;20264;-80
2023/04/08 08:32:38;;;;;;;12.90;11.50;;;;;;;;;;5113164;28;20281;-80
2023/04/08 08:35:05;;;;;;;14.17;11.50;;;;;;;;;;5113370;28;20214;-80
2023/04/08 08:37:33;;;;;;;12.60;11.30;;;;;;;;;;5103620;28;20209;-80
2023/04/08 08:40:01;;;;;;;12.73;11.50;;;;;;;;;;5095173;28;20204;-80
2023/04/08 08:42:27;;;;;;;12.33;9.83;;;;;;;;;;5104105;28;20200;-80
2023/04/08 08:44:54;;;;;;;12.53;11.33;;;;;;;;;;5106243;28;20205;-79
2023/04/08 08:47:21;;;;;;;15.77;13.37;;;;;;;;;;5102437;28;20286;-80
2023/04/08 08:49:51;;;;;;;11.63;10.43;;;;;;;;;;5109267;28;20607;-79
2023/04/08 08:52:18;;;;;;;12.77;10.80;;;;;;;;;;5103014;28;20228;-79
2023/04/08 08:54:47;;;;;;;14.57;11.53;;;;;;;;;;5108451;28;20257;-79
2023/04/08 08:57:18;;;;;;;16.57;13.97;;;;;;;;;;5103480;28;20210;-80
2023/04/08 08:59:46;;;;;;;16.47;12.73;;;;;;;;;;5112506;28;20298;-79
2023/04/08 09:02:25;;;;;;;17.90;14.07;;;;;;;;;;5112363;28;20203;-80
2023/04/08 09:04:57;;;;;;;19.23;13.50;;;;;;;;;;5105303;28;20196;-80
2023/04/08 09:07:25;;;;;;;20.63;13.53;;;;;;;;;;5105120;28;20264;-81
2023/04/08 09:09:54;;;;;;;17.33;14.67;;;;;;;;;;5092385;28;20231;-80
2023/04/08 09:12:21;;;;;;;28.03;19.80;;;;;;;;;;5106917;28;20674;-83
2023/04/08 09:14:48;;;;;;;12.97;10.37;;;;;;;;;;5104402;28;20566;-80
2023/04/08 09:17:16;;;;;;;12.73;11.33;;;;;;;;;;5105036;28;20639;-80
2023/04/08 09:20:08;;;;;;;13.57;12.20;;;;;;;;;;5091884;28;20211;-80
2023/04/08 09:22:35;;;;;;;10.43;9.40;;;;;;;;;;5097065;28;20681;-80
2023/04/08 09:25:23;;;;;;;10.93;9.13;;;;;;;;;;5099012;28;20207;-80
2023/04/08 09:27:50;;;;;;;10.20;9.20;;;;;;;;;;5100076;28;20747;-80
2023/04/08 09:30:17;;;;;;;13.40;11.93;;;;;;;;;;5111721;28;20227;-80
2023/04/08 09:32:48;;;;;;;18.67;14.70;;;;;;;;;;5111313;28;20606;-80
2023/04/08 09:35:16;;;;;;;13.90;11.93;;;;;;;;;;5098070;28;20298;-83
2023/04/08 09:37:45;;;;;;;10.73;8.67;;;;;;;;;;5101182;28;20204;-80
2023/04/08 09:40:14;;;;;;;12.73;10.93;;;;;;;;;;5095012;28;20656;-80
2023/04/08 09:42:45;;;;;;;17.87;13.77;;;;;;;;;;5102972;28;20207;-80
2023/04/08 09:45:12;;;;;;;11.23;10.13;;;;;;;;;;5111953;28;20592;-80
2023/04/08 09:47:48;;;;;;;17.57;12.10;;;;;;;;;;5111525;28;20203;-80
2023/04/08 09:50:16;;;;;;;13.47;12.07;;;;;;;;;;5098399;28;20227;-79
2023/04/08 09:52:45;;;;;;;13.63;11.67;;;;;;;;;;5098070;28;20674;-81
2023/04/08 09:55:13;;;;;;;12.67;11.17;;;;;;;;;;5111789;28;20203;-80
2023/04/08 09:57:42;;;;;;;10.27;9.00;;;;;;;;;;5111730;28;20238;-80
2023/04/08 10:00:11;;;;;;;16.67;12.97;;;;;;;;;;5111660;28;20211;-80
2023/04/08 10:02:46;;;;;;;11.23;10.03;;;;;;;;;;5108251;28;20193;-80
2023/04/08 10:05:14;;;;;;;17.97;11.97;;;;;;;;;;5091605;28;20204;-80
2023/04/08 10:07:41;;;;;;;12.97;10.93;;;;;;;;;;5091111;28;20249;-80
2023/04/08 10:10:09;;;;;;;15.77;12.70;;;;;;;;;;5102033;28;20239;-80
2023/04/08 10:12:38;;;;;;;13.33;11.93;;;;;;;;;;5108701;28;20243;-80
2023/04/08 10:15:27;;;;;;;10.60;9.50;;;;;;;;;;5101728;28;20191;-80
2023/04/08 10:17:54;;;;;;;20.20;15.07;;;;;;;;;;5098086;28;20203;-80
2023/04/08 10:20:43;;;;;;;12.57;11.30;;;;;;;;;;5111192;28;20303;-81
2023/04/08 10:23:12;;;;;;;14.20;9.93;;;;;;;;;;5111426;28;20207;-80
2023/04/08 10:25:40;;;;;;;11.53;10.33;;;;;;;;;;5097680;28;20204;-81
2023/04/08 10:28:26;;;;;;;10.50;9.50;;;;;;;;;;5111559;28;20203;-80
2023/04/08 10:30:53;;;;;;;7.87;7.17;;;;;;;;;;5091146;28;20207;-81
2023/04/08 10:33:23;;;;;;;7.83;7.07;;;;;;;;;;5092482;28;20204;-81
2023/04/08 10:35:53;;;;;;;8.47;7.60;;;;;;;;;;5111739;28;20252;-80
2023/04/08 10:38:24;;;;;;;10.70;9.20;;;;;;;;;;5095962;28;20204;-81
2023/04/08 10:40:52;;;;;;;9.07;8.17;;;;;;;;;;5091090;28;20650;-80
2023/04/08 10:43:23;;;;;;;16.43;11.37;;;;;;;;;;5107923;28;20199;-80
2023/04/08 10:45:53;;;;;;;15.47;11.27;;;;;;;;;;5100671;28;20236;-80
2023/04/08 10:48:23;;;;;;;15.27;10.07;;;;;;;;;;5094952;28;20609;-80
2023/04/08 10:50:54;;;;;;;10.20;7.80;;;;;;;;;;5099489;28;20208;-79
2023/04/08 10:53:26;;;;;;;18.30;12.77;;;;;;;;;;5109838;28;20202;-80
2023/04/08 10:55:52;;;;;;;43.77;26.20;;;;;;;;;;5097730;28;20262;-80
2023/04/08 10:58:19;;;;;;;10.27;9.13;;;;;;;;;;5108171;28;20730;-79
2023/04/08 11:00:47;;;;;;;9.50;8.43;;;;;;;;;;5097849;28;20239;-78
2023/04/08 11:03:15;;;;;;;8.40;7.60;;;;;;;;;;5114512;28;20203;-81
2023/04/08 11:05:45;;;;;;;9.07;7.07;;;;;;;;;;5106731;28;20212;-81
2023/04/08 11:08:12;;;;;;;10.53;7.77;;;;;;;;;;5107257;28;20195;-81
2023/04/08 11:10:40;;;;;;;8.57;7.67;;;;;;;;;;5102451;28;20228;-82
2023/04/08 11:13:08;;;;;;;8.77;7.87;;;;;;;;;;5114516;28;20650;-81
2023/04/08 11:15:36;;;;;;;17.07;12.70;;;;;;;;;;5104638;28;20208;-82
2023/04/08 11:18:03;;;;;;;15.83;12.47;;;;;;;;;;5116927;28;20195;-82
2023/04/08 11:20:33;;;;;;;6.70;6.00;;;;;;;;;;5115962;28;20200;-83
2023/04/08 11:23:01;;;;;;;7.83;7.13;;;;;;;;;;5129743;28;20207;-81
2023/04/08 11:25:29;;;;;;;9.77;7.60;;;;;;;;;;5127406;28;20203;-82
2023/04/08 11:27:56;;;;;;;9.90;8.87;;;;;;;;;;5121155;28;20196;-81
2023/04/08 11:30:24;;;;;;;13.27;10.83;;;;;;;;;;5116772;28;20239;-83
2023/04/08 11:32:51;;;;;;;10.40;9.23;;;;;;;;;;5113514;28;20252;-84
2023/04/08 11:35:18;;;;;;;7.17;6.47;;;;;;;;;;5115642;28;20261;-81
2023/04/08 11:37:48;;;;;;;9.57;8.47;;;;;;;;;;5128642;28;20200;-80
2023/04/08 11:40:20;;;;;;;28.70;21.73;;;;;;;;;;5111846;28;20281;-80
2023/04/08 11:42:49;;;;;;;10.63;9.57;;;;;;;;;;5075905;28;20212;-80
2023/04/08 11:45:17;;;;;;;9.93;7.97;;;;;;;;;;5122635;28;20205;-80
2023/04/08 11:47:46;;;;;;;8.03;6.33;;;;;;;;;;5090896;28;20204;-81
2023/04/08 11:50:13;;;;;;;8.20;7.40;;;;;;;;;;5117937;28;20256;-80
2023/04/08 11:52:48;;;;;;;64.77;38.87;;;;;;;;;;5117729;28;20212;-81
2023/04/08 11:55:23;;;;;;;91.13;56.10;;;;;;;;;;5116781;28;20195;-81
2023/04/08 11:57:50;;;;;;;10.87;9.77;;;;;;;;;;5114176;28;20202;-81
2023/04/08 12:00:18;;;;;;;11.53;10.53;;;;;;;;;;5103426;28;20211;-81
2023/04/08 12:02:45;;;;;;;9.27;8.37;;;;;;;;;;5083116;28;20219;-81
2023/04/08 12:05:12;;;;;;;8.13;7.33;;;;;;;;;;5086820;28;20277;-81
2023/04/08 12:07:39;;;;;;;9.37;7.67;;;;;;;;;;5076847;28;20245;-80
2023/04/08 12:10:10;;;;;;;11.17;10.07;;;;;;;;;;5105245;28;20248;-81
2023/04/08 12:12:38;;;;;;;11.03;8.87;;;;;;;;;;5094124;28;20207;-81
2023/04/08 12:15:06;;;;;;;8.37;7.60;;;;;;;;;;5104819;28;20200;-80
2023/04/08 12:17:33;;;;;;;5.37;4.83;;;;;;;;;;5107255;28;20258;-81
2023/04/08 12:20:01;;;;;;;13.93;12.03;;;;;;;;;;5093418;28;20199;-81
2023/04/08 12:22:28;;;;;;;9.70;8.80;;;;;;;;;;5093806;28;20281;-81
2023/04/08 12:24:55;;;;;;;5.77;5.27;;;;;;;;;;5075905;28;20261;-80
2023/04/08 12:27:23;;;;;;;11.50;10.40;;;;;;;;;;5092879;28;20659;-81
2023/04/08 12:29:52;;;;;;;9.37;8.20;;;;;;;;;;5095546;28;20232;-81
2023/04/08 12:32:19;;;;;;;8.20;7.17;;;;;;;;;;5099601;28;20207;-81
2023/04/08 12:34:47;;;;;;;8.30;7.50;;;;;;;;;;5095024;28;20227;-82
2023/04/08 12:37:14;;;;;;;12.47;10.60;;;;;;;;;;5112792;28;20203;-80
2023/04/08 12:39:43;;;;;;;7.90;7.20;;;;;;;;;;5113119;28;20215;-81
2023/04/08 12:42:11;;;;;;;8.57;6.63;;;;;;;;;;5099214;28;20690;-82
2023/04/08 12:44:42;;;;;;;8.90;8.00;;;;;;;;;;5080976;28;20214;-81
2023/04/08 12:47:09;;;;;;;10.30;9.30;;;;;;;;;;5093142;28;20659;-81
2023/04/08 12:49:36;;;;;;;10.97;9.13;;;;;;;;;;5089304;28;20614;-81
2023/04/08 12:52:06;;;;;;;13.67;11.80;;;;;;;;;;5091867;28;20200;-79
2023/04/08 12:54:36;;;;;;;10.50;9.43;;;;;;;;;;5085479;28;20204;-79
2023/04/08 12:57:03;;;;;;;15.67;14.17;;;;;;;;;;5094373;28;20196;-79
2023/04/08 12:59:32;;;;;;;17.30;15.50;;;;;;;;;;5094326;28;20268;-79
2023/04/08 13:02:00;;;;;;;10.83;9.73;;;;;;;;;;5090867;28;20222;-81
2023/04/08 13:04:31;;;;;;;9.17;8.27;;;;;;;;;;5091857;28;20216;-81
2023/04/08 13:06:59;;;;;;;24.10;20.90;;;;;;;;;;5105810;28;20206;-82
2023/04/08 13:09:29;;;;;;;18.30;14.63;;;;;;;;;;5112351;28;20717;-81
2023/04/08 13:11:56;;;;;;;13.27;11.63;;;;;;;;;;5103870;28;20294;-81
2023/04/08 13:14:24;;;;;;;9.67;8.20;;;;;;;;;;5112284;28;20210;-83
2023/04/08 13:16:52;;;;;;;19.37;13.30;;;;;;;;;;5065608;28;20214;-82
2023/04/08 13:19:23;;;;;;;15.97;11.03;;;;;;;;;;5092294;28;20313;-82
2023/04/08 13:21:53;;;;;;;20.87;13.73;;;;;;;;;;5104533;28;20199;-82
2023/04/08 13:24:20;;;;;;;20.63;13.40;;;;;;;;;;5105072;28;20593;-81
2023/04/08 13:26:47;;;;;;;9.47;8.47;;;;;;;;;;5105060;28;20256;-84
2023/04/08 13:29:14;;;;;;;8.07;7.37;;;;;;;;;;5098166;28;20624;-81
2023/04/08 13:31:41;;;;;;;9.87;8.97;;;;;;;;;;5111962;28;20302;-81
2023/04/08 13:34:08;;;;;;;13.97;8.50;;;;;;;;;;5098596;28;20200;-81
2023/04/08 13:36:38;;;;;;;8.80;7.90;;;;;;;;;;5111123;28;20582;-81
2023/04/08 13:39:05;;;;;;;7.97;6.90;;;;;;;;;;5099628;28;20214;-80
2023/04/08 13:41:33;;;;;;;11.03;6.70;;;;;;;;;;5097647;28;20691;-81
2023/04/08 13:44:02;;;;;;;8.63;7.10;;;;;;;;;;5103479;28;20261;-81
2023/04/08 13:46:29;;;;;;;9.37;6.90;;;;;;;;;;5094043;28;20208;-80
2023/04/08 13:48:56;;;;;;;11.67;7.50;;;;;;;;;;5102496;28;20771;-81
2023/04/08 13:51:24;;;;;;;7.10;6.40;;;;;;;;;;5104775;28;20225;-81
2023/04/08 13:53:52;;;;;;;36.67;22.07;;;;;;;;;;5101240;28;20215;-80
2023/04/08 13:56:18;;;;;;;14.13;11.60;;;;;;;;;;5108035;28;20201;-81
2023/04/08 13:58:46;;;;;;;10.33;8.00;;;;;;;;;;5101576;28;20214;-80
2023/04/08 14:01:14;;;;;;;10.33;8.63;;;;;;;;;;5097753;28;20739;-82
2023/04/08 14:03:41;;;;;;;5.50;5.00;;;;;;;;;;5111523;28;20594;-82
2023/04/08 14:06:08;;;;;;;6.20;5.60;;;;;;;;;;5097812;28;20223;-80
2023/04/08 14:08:34;;;;;;;6.33;5.80;;;;;;;;;;5104223;28;20219;-80
2023/04/08 14:11:03;;;;;;;5.67;5.07;;;;;;;;;;5110684;28;20223;-81
2023/04/08 14:13:31;;;;;;;4.97;4.57;;;;;;;;;;5111000;28;20195;-81
2023/04/08 14:16:01;;;;;;;4.97;4.43;;;;;;;;;;5111560;28;20290;-81
2023/04/08 14:18:28;;;;;;;6.50;4.80;;;;;;;;;;5099220;28;20204;-81
2023/04/08 14:20:56;;;;;;;7.07;4.37;;;;;;;;;;5096509;28;20568;-85
2023/04/08 14:23:23;;;;;;;8.93;5.70;;;;;;;;;;5110852;28;20666;-80
2023/04/08 14:25:49;;;;;;;4.03;3.73;;;;;;;;;;5097867;28;20594;-80